Time;durP1;ratioP1;P1;durP2;ratioP2;P2;SDS_P1;SDS_P2;PMS_P1;PMS_P2;Temp;Humidity;BMP_temperature;BMP_pressure;BME280_temperature;BME280_humidity;BME280_pressure;Samples;Min_cycle;Max_cycle;Signal;HPM_P1;HPM_P2
2024/01/16 00:00:15;;;;;;;20.07;13.93;;;;;;;;;;5090919;28;20273;-80
2024/01/16 00:02:41;;;;;;;18.93;12.47;;;;;;;;;;5090543;28;20677;-80
2024/01/16 00:05:10;;;;;;;25.77;17.70;;;;;;;;;;5091262;28;20200;-80
2024/01/16 00:07:39;;;;;;;29.50;18.53;;;;;;;;;;5090850;28;20207;-80
2024/01/16 00:10:08;;;;;;;21.90;15.83;;;;;;;;;;5090462;28;20192;-80
2024/01/16 00:12:35;;;;;;;22.53;15.43;;;;;;;;;;5090814;28;20200;-80
2024/01/16 00:15:02;;;;;;;21.37;14.20;;;;;;;;;;5090986;28;20567;-80
2024/01/16 00:17:28;;;;;;;17.57;12.60;;;;;;;;;;5090633;28;20212;-79
2024/01/16 00:19:55;;;;;;;17.33;12.93;;;;;;;;;;5090445;28;20196;-81
2024/01/16 00:22:23;;;;;;;17.00;12.27;;;;;;;;;;5091008;28;20341;-80
2024/01/16 00:24:53;;;;;;;19.13;12.30;;;;;;;;;;5090406;28;20596;-79
2024/01/16 00:27:19;;;;;;;18.13;13.87;;;;;;;;;;5090633;28;20203;-80
2024/01/16 00:29:46;;;;;;;16.37;12.60;;;;;;;;;;5089912;28;20281;-79
2024/01/16 00:32:15;;;;;;;19.73;14.13;;;;;;;;;;5077590;28;20212;-80
2024/01/16 00:34:42;;;;;;;19.00;13.20;;;;;;;;;;5090625;28;20224;-80
2024/01/16 00:37:09;;;;;;;17.27;13.93;;;;;;;;;;5090760;28;20208;-80
2024/01/16 00:39:38;;;;;;;19.40;12.93;;;;;;;;;;5093837;28;20208;-80
2024/01/16 00:42:05;;;;;;;18.20;13.20;;;;;;;;;;5094352;28;20196;-80
2024/01/16 00:44:32;;;;;;;17.83;12.47;;;;;;;;;;5093712;28;20200;-80
2024/01/16 00:47:01;;;;;;;48.57;27.87;;;;;;;;;;5094625;28;20204;-80
2024/01/16 00:49:28;;;;;;;34.50;21.63;;;;;;;;;;5094110;28;20671;-80
2024/01/16 00:51:55;;;;;;;32.13;19.27;;;;;;;;;;5092691;28;20209;-79
2024/01/16 00:54:21;;;;;;;29.37;19.43;;;;;;;;;;5093017;28;20227;-80
2024/01/16 00:56:50;;;;;;;37.43;21.87;;;;;;;;;;5094061;28;20205;-79
2024/01/16 00:59:16;;;;;;;24.37;17.33;;;;;;;;;;5093602;28;20204;-80
2024/01/16 01:01:43;;;;;;;21.83;13.60;;;;;;;;;;5094088;28;20196;-80
2024/01/16 01:04:10;;;;;;;16.87;11.57;;;;;;;;;;5093776;28;20200;-80
2024/01/16 01:06:37;;;;;;;12.93;9.57;;;;;;;;;;5094189;28;20204;-80
2024/01/16 01:09:04;;;;;;;15.80;10.17;;;;;;;;;;5093823;28;20234;-80
2024/01/16 01:11:30;;;;;;;14.63;10.50;;;;;;;;;;5094042;28;20204;-80
2024/01/16 01:13:59;;;;;;;12.53;9.67;;;;;;;;;;5094035;28;20224;-80
2024/01/16 01:16:26;;;;;;;11.73;9.60;;;;;;;;;;5093458;28;20670;-80
2024/01/16 01:18:52;;;;;;;13.97;9.47;;;;;;;;;;5093489;28;20586;-80
2024/01/16 01:21:19;;;;;;;14.40;9.40;;;;;;;;;;5094162;28;20581;-80
2024/01/16 01:23:46;;;;;;;12.23;9.80;;;;;;;;;;5093743;28;20200;-80
2024/01/16 01:26:14;;;;;;;11.03;9.03;;;;;;;;;;5093951;28;20200;-80
2024/01/16 01:28:40;;;;;;;13.10;9.23;;;;;;;;;;5093439;28;20300;-80
2024/01/16 01:31:11;;;;;;;11.87;8.63;;;;;;;;;;5094056;28;20215;-80
2024/01/16 01:33:38;;;;;;;10.27;8.70;;;;;;;;;;5093719;28;20598;-80
2024/01/16 01:36:05;;;;;;;15.47;9.97;;;;;;;;;;5093608;28;20209;-80
2024/01/16 01:38:32;;;;;;;11.87;9.43;;;;;;;;;;5093171;28;20201;-80
2024/01/16 01:40:59;;;;;;;11.43;8.90;;;;;;;;;;5093744;28;20200;-80
2024/01/16 01:43:26;;;;;;;10.77;8.47;;;;;;;;;;5093305;28;20200;-80
2024/01/16 01:46:07;;;;;;;13.17;8.47;;;;;;;;;;5093757;28;20204;-80
2024/01/16 01:48:35;;;;;;;13.63;9.23;;;;;;;;;;5089312;28;20203;-80
2024/01/16 01:51:02;;;;;;;11.77;8.83;;;;;;;;;;5097835;28;20208;-80
2024/01/16 01:53:32;;;;;;;10.63;8.10;;;;;;;;;;5092817;28;20220;-80
2024/01/16 01:55:58;;;;;;;8.97;7.50;;;;;;;;;;5092923;28;20204;-80
2024/01/16 01:58:25;;;;;;;11.80;9.17;;;;;;;;;;5093157;28;20626;-80
2024/01/16 02:00:53;;;;;;;11.00;7.97;;;;;;;;;;5092654;28;21658;-80
2024/01/16 02:03:20;;;;;;;10.90;8.30;;;;;;;;;;5092835;28;20674;-80
2024/01/16 02:05:49;;;;;;;14.60;9.80;;;;;;;;;;5093034;28;20205;-80
2024/01/16 02:08:16;;;;;;;10.00;7.40;;;;;;;;;;5092452;28;20207;-80
2024/01/16 02:10:45;;;;;;;14.87;8.63;;;;;;;;;;5093025;28;20204;-80
2024/01/16 02:13:15;;;;;;;15.10;9.80;;;;;;;;;;5092617;28;20205;-80
2024/01/16 02:15:42;;;;;;;11.97;8.23;;;;;;;;;;5093017;28;20203;-80
2024/01/16 02:18:08;;;;;;;12.73;9.00;;;;;;;;;;5092780;28;20205;-80
2024/01/16 02:20:35;;;;;;;12.50;8.10;;;;;;;;;;5092221;28;20628;-80
2024/01/16 02:23:05;;;;;;;14.37;7.90;;;;;;;;;;5092935;28;20208;-80
2024/01/16 02:25:33;;;;;;;11.57;7.77;;;;;;;;;;5092459;28;20694;-80
2024/01/16 02:28:00;;;;;;;12.40;8.53;;;;;;;;;;5091898;28;20732;-80
2024/01/16 02:30:27;;;;;;;8.67;7.17;;;;;;;;;;5092264;28;20200;-80
2024/01/16 02:32:54;;;;;;;11.27;7.67;;;;;;;;;;5092415;28;20208;-80
2024/01/16 02:35:21;;;;;;;8.70;7.20;;;;;;;;;;5092236;28;20224;-80
2024/01/16 02:37:47;;;;;;;9.00;7.10;;;;;;;;;;5092223;28;20193;-80
2024/01/16 02:40:15;;;;;;;12.33;8.90;;;;;;;;;;5091789;28;20204;-80
2024/01/16 02:42:43;;;;;;;10.27;8.23;;;;;;;;;;5092681;28;20204;-80
2024/01/16 02:45:10;;;;;;;12.77;9.63;;;;;;;;;;5092229;28;20200;-80
2024/01/16 02:47:37;;;;;;;15.20;9.63;;;;;;;;;;5092009;28;20204;-80
2024/01/16 02:50:05;;;;;;;12.03;8.43;;;;;;;;;;5092357;28;20606;-80
2024/01/16 02:52:31;;;;;;;11.53;8.80;;;;;;;;;;5092049;28;20210;-80
2024/01/16 02:54:58;;;;;;;13.40;8.73;;;;;;;;;;5091953;28;20281;-80
2024/01/16 02:57:25;;;;;;;11.80;8.83;;;;;;;;;;5091600;28;20292;-80
2024/01/16 02:59:54;;;;;;;10.73;8.90;;;;;;;;;;5091708;28;20274;-80
2024/01/16 03:02:22;;;;;;;11.40;7.93;;;;;;;;;;5090917;28;20200;-80
2024/01/16 03:04:49;;;;;;;13.07;9.53;;;;;;;;;;5091829;28;20292;-80
2024/01/16 03:07:16;;;;;;;15.77;11.20;;;;;;;;;;5091584;28;20739;-80
2024/01/16 03:09:43;;;;;;;15.00;10.17;;;;;;;;;;5091496;28;20720;-80
2024/01/16 03:12:10;;;;;;;11.40;7.37;;;;;;;;;;5091353;28;20203;-80
2024/01/16 03:14:38;;;;;;;60.37;29.00;;;;;;;;;;5091839;28;20224;-79
2024/01/16 03:17:07;;;;;;;49.87;30.03;;;;;;;;;;5091466;28;20196;-81
2024/01/16 03:19:33;;;;;;;27.13;16.53;;;;;;;;;;5083683;28;20225;-80
2024/01/16 03:22:00;;;;;;;23.33;15.00;;;;;;;;;;5088558;28;20204;-80
2024/01/16 03:24:27;;;;;;;25.67;15.17;;;;;;;;;;5091043;28;20218;-80
2024/01/16 03:26:54;;;;;;;26.37;17.10;;;;;;;;;;5091706;28;20203;-80
2024/01/16 03:29:21;;;;;;;16.13;10.97;;;;;;;;;;5091569;28;20258;-79
2024/01/16 03:31:48;;;;;;;14.23;9.70;;;;;;;;;;5091668;28;20196;-80
2024/01/16 03:34:17;;;;;;;15.53;11.57;;;;;;;;;;5090673;28;20285;-80
2024/01/16 03:36:43;;;;;;;19.83;15.50;;;;;;;;;;5090827;28;20606;-80
2024/01/16 03:39:11;;;;;;;19.67;13.43;;;;;;;;;;5091389;28;20196;-79
2024/01/16 03:41:38;;;;;;;18.10;12.23;;;;;;;;;;5091311;28;20200;-82
2024/01/16 03:44:05;;;;;;;20.83;12.10;;;;;;;;;;5088422;28;20200;-78
2024/01/16 03:46:32;;;;;;;13.13;9.70;;;;;;;;;;5090828;28;20211;-80
2024/01/16 03:48:59;;;;;;;7.50;6.40;;;;;;;;;;5091127;28;20203;-79
2024/01/16 03:51:27;;;;;;;6.73;4.93;;;;;;;;;;5090597;28;20196;-79
2024/01/16 03:53:53;;;;;;;13.70;11.00;;;;;;;;;;5090932;28;20227;-79
2024/01/16 03:56:20;;;;;;;8.90;7.13;;;;;;;;;;5091039;28;20197;-79
2024/01/16 03:58:47;;;;;;;8.43;7.23;;;;;;;;;;5090917;28;20245;-79
2024/01/16 04:01:14;;;;;;;9.27;7.60;;;;;;;;;;5091034;28;20208;-79
2024/01/16 04:03:41;;;;;;;11.07;6.33;;;;;;;;;;5090356;28;20211;-79
2024/01/16 04:06:16;;;;;;;5.20;4.50;;;;;;;;;;5090935;28;20207;-78
2024/01/16 04:08:44;;;;;;;5.20;4.40;;;;;;;;;;5090021;28;20286;-81
2024/01/16 04:11:13;;;;;;;7.20;5.07;;;;;;;;;;5090793;28;20666;-78
2024/01/16 04:13:40;;;;;;;5.63;4.90;;;;;;;;;;5091715;28;20218;-78
2024/01/16 04:16:07;;;;;;;7.87;4.63;;;;;;;;;;5094716;28;20189;-78
2024/01/16 04:18:36;;;;;;;6.80;5.00;;;;;;;;;;5094202;28;20192;-78
2024/01/16 04:21:03;;;;;;;5.70;4.60;;;;;;;;;;5095042;28;20243;-78
2024/01/16 04:23:30;;;;;;;6.83;4.80;;;;;;;;;;5094136;28;20200;-78
2024/01/16 04:25:58;;;;;;;5.20;3.93;;;;;;;;;;5094891;28;20574;-77
2024/01/16 04:28:25;;;;;;;4.63;4.17;;;;;;;;;;5094334;28;20228;-78
2024/01/16 04:30:52;;;;;;;4.07;3.67;;;;;;;;;;5095019;28;20222;-78
2024/01/16 04:33:19;;;;;;;5.30;4.47;;;;;;;;;;5094146;28;20204;-77
2024/01/16 04:35:45;;;;;;;5.87;4.47;;;;;;;;;;5094417;28;20732;-78
2024/01/16 04:38:15;;;;;;;5.20;4.20;;;;;;;;;;5094448;28;20188;-78
2024/01/16 04:40:41;;;;;;;5.23;4.17;;;;;;;;;;5094769;28;20196;-78
2024/01/16 04:43:10;;;;;;;5.13;3.63;;;;;;;;;;5092667;28;20212;-76
2024/01/16 04:45:36;;;;;;;5.07;4.57;;;;;;;;;;5094203;28;20204;-77
2024/01/16 04:48:04;;;;;;;5.20;4.43;;;;;;;;;;5094370;28;20221;-77
2024/01/16 04:50:32;;;;;;;4.83;4.40;;;;;;;;;;5093765;28;20196;-78
2024/01/16 04:52:59;;;;;;;5.27;4.77;;;;;;;;;;5093517;28;20192;-77
2024/01/16 04:55:26;;;;;;;5.47;4.93;;;;;;;;;;5089394;28;20234;-78
2024/01/16 04:57:53;;;;;;;5.07;4.13;;;;;;;;;;5093967;28;20253;-78
2024/01/16 05:00:22;;;;;;;5.63;4.60;;;;;;;;;;5094262;28;20734;-78
2024/01/16 05:02:48;;;;;;;5.20;4.47;;;;;;;;;;5091376;28;20212;-78
2024/01/16 05:05:15;;;;;;;5.60;4.33;;;;;;;;;;5093787;28;20204;-78
2024/01/16 05:07:42;;;;;;;6.43;4.53;;;;;;;;;;5093997;28;20699;-78
2024/01/16 05:10:11;;;;;;;5.83;4.97;;;;;;;;;;5093876;28;20212;-78
2024/01/16 05:12:38;;;;;;;7.63;5.27;;;;;;;;;;5093873;28;20236;-77
2024/01/16 05:15:06;;;;;;;8.03;6.17;;;;;;;;;;5093475;28;20228;-78
2024/01/16 05:17:34;;;;;;;7.97;6.67;;;;;;;;;;5094037;28;20282;-78
2024/01/16 05:20:03;;;;;;;9.03;7.10;;;;;;;;;;5093575;28;20196;-77
2024/01/16 05:22:30;;;;;;;10.47;7.67;;;;;;;;;;5093797;28;20196;-77
2024/01/16 05:24:57;;;;;;;8.13;6.10;;;;;;;;;;5093462;28;20200;-78
2024/01/16 05:27:24;;;;;;;10.30;7.00;;;;;;;;;;5093575;28;20207;-77
2024/01/16 05:29:53;;;;;;;7.03;6.30;;;;;;;;;;5093145;28;20835;-77
2024/01/16 05:32:19;;;;;;;8.30;6.40;;;;;;;;;;5093769;28;20200;-77
2024/01/16 05:34:48;;;;;;;11.50;6.13;;;;;;;;;;5093375;28;20227;-78
2024/01/16 05:37:15;;;;;;;7.83;6.57;;;;;;;;;;5093813;28;20203;-77
2024/01/16 05:39:42;;;;;;;7.30;5.97;;;;;;;;;;5093376;28;20561;-77
2024/01/16 05:42:09;;;;;;;12.60;8.70;;;;;;;;;;5092565;28;20640;-77
2024/01/16 05:44:35;;;;;;;8.83;6.90;;;;;;;;;;5091477;28;20200;-77
2024/01/16 05:47:02;;;;;;;9.13;7.20;;;;;;;;;;5091485;28;20200;-77
2024/01/16 05:49:29;;;;;;;10.13;8.17;;;;;;;;;;5092009;28;20193;-77
2024/01/16 05:51:58;;;;;;;9.97;8.77;;;;;;;;;;5092511;28;20218;-77
2024/01/16 05:54:24;;;;;;;13.37;8.10;;;;;;;;;;5091748;28;20231;-77
2024/01/16 05:56:54;;;;;;;10.93;8.57;;;;;;;;;;5092850;28;20196;-77
2024/01/16 05:59:21;;;;;;;12.37;9.47;;;;;;;;;;5093082;28;20196;-77
2024/01/16 06:01:49;;;;;;;14.40;10.63;;;;;;;;;;5092871;28;20218;-78
2024/01/16 06:04:16;;;;;;;10.87;8.60;;;;;;;;;;5092157;28;20201;-77
2024/01/16 06:06:45;;;;;;;14.13;9.60;;;;;;;;;;5091923;28;20674;-77
2024/01/16 06:09:13;;;;;;;11.37;8.90;;;;;;;;;;5092880;28;20627;-77
2024/01/16 06:11:41;;;;;;;10.37;6.83;;;;;;;;;;5092750;28;20215;-77
2024/01/16 06:14:08;;;;;;;8.13;7.00;;;;;;;;;;5091924;28;20769;-77
2024/01/16 06:16:35;;;;;;;7.77;6.77;;;;;;;;;;5092392;28;20247;-77
2024/01/16 06:19:01;;;;;;;9.40;7.37;;;;;;;;;;5092514;28;20199;-77
2024/01/16 06:21:28;;;;;;;6.80;6.10;;;;;;;;;;5092800;28;20212;-76
2024/01/16 06:23:55;;;;;;;7.20;6.33;;;;;;;;;;5092388;28;20211;-77
2024/01/16 06:26:23;;;;;;;6.10;5.50;;;;;;;;;;5092397;28;20212;-79
2024/01/16 06:28:50;;;;;;;5.50;4.90;;;;;;;;;;5091823;28;20220;-78
2024/01/16 06:31:17;;;;;;;8.67;5.13;;;;;;;;;;5092255;28;20200;-77
2024/01/16 06:33:44;;;;;;;6.37;5.57;;;;;;;;;;5091645;28;20246;-77
2024/01/16 06:36:13;;;;;;;12.00;5.90;;;;;;;;;;5091788;28;20610;-77
2024/01/16 06:38:40;;;;;;;5.67;5.13;;;;;;;;;;5079058;28;20238;-77
2024/01/16 06:41:07;;;;;;;6.10;4.67;;;;;;;;;;5091989;28;20231;-77
2024/01/16 06:43:35;;;;;;;5.13;3.73;;;;;;;;;;5092227;28;20222;-77
2024/01/16 06:46:02;;;;;;;4.27;3.87;;;;;;;;;;5091704;28;20211;-77
2024/01/16 06:48:29;;;;;;;3.47;3.17;;;;;;;;;;5092041;28;20678;-77
2024/01/16 06:50:56;;;;;;;5.07;3.00;;;;;;;;;;5091868;28;20197;-77
2024/01/16 06:53:23;;;;;;;8.03;2.47;;;;;;;;;;5091837;28;20207;-77
2024/01/16 06:55:50;;;;;;;5.13;2.17;;;;;;;;;;5092068;28;20323;-77
2024/01/16 06:58:17;;;;;;;5.20;2.10;;;;;;;;;;5091668;28;20283;-77
2024/01/16 07:00:45;;;;;;;2.27;1.77;;;;;;;;;;5092246;28;20204;-77
2024/01/16 07:03:12;;;;;;;1.83;1.73;;;;;;;;;;5091739;28;20587;-77
2024/01/16 07:05:40;;;;;;;2.07;1.87;;;;;;;;;;5091773;28;20354;-77
2024/01/16 07:08:07;;;;;;;1.73;1.63;;;;;;;;;;5091412;28;20732;-77
2024/01/16 07:10:35;;;;;;;2.17;1.60;;;;;;;;;;5091290;28;20197;-77
2024/01/16 07:13:02;;;;;;;2.03;1.93;;;;;;;;;;5091670;28;20196;-77
2024/01/16 07:15:29;;;;;;;1.73;1.63;;;;;;;;;;5091458;28;20259;-77
2024/01/16 07:17:57;;;;;;;1.90;1.67;;;;;;;;;;5091049;28;20204;-77
2024/01/16 07:20:24;;;;;;;3.80;2.17;;;;;;;;;;5091415;28;20673;-77
2024/01/16 07:22:53;;;;;;;4.40;1.83;;;;;;;;;;5091682;28;20204;-77
2024/01/16 07:25:20;;;;;;;6.13;1.57;;;;;;;;;;5091217;28;20249;-78
2024/01/16 07:27:49;;;;;;;3.90;3.20;;;;;;;;;;5091135;28;20239;-77
2024/01/16 07:30:16;;;;;;;12.40;3.30;;;;;;;;;;5091063;28;20233;-77
2024/01/16 07:32:43;;;;;;;2.40;2.10;;;;;;;;;;5091598;28;20591;-77
2024/01/16 07:35:15;;;;;;;2.17;1.70;;;;;;;;;;5090877;28;20217;-76
2024/01/16 07:37:42;;;;;;;2.13;1.87;;;;;;;;;;5091243;28;20223;-77
2024/01/16 07:40:12;;;;;;;2.83;2.40;;;;;;;;;;5091291;28;20603;-77
2024/01/16 07:42:39;;;;;;;4.27;3.50;;;;;;;;;;5090584;28;20207;-77
2024/01/16 07:45:06;;;;;;;6.60;3.07;;;;;;;;;;5091273;28;20207;-76
2024/01/16 07:47:33;;;;;;;2.90;2.60;;;;;;;;;;5090812;28;20200;-78
2024/01/16 07:50:01;;;;;;;4.23;2.93;;;;;;;;;;5078624;28;20301;-76
2024/01/16 07:52:29;;;;;;;3.83;3.00;;;;;;;;;;5090641;28;20585;-78
2024/01/16 07:54:56;;;;;;;3.40;3.10;;;;;;;;;;5090854;28;20270;-77
2024/01/16 07:57:24;;;;;;;2.37;2.17;;;;;;;;;;5090793;28;20203;-77
2024/01/16 07:59:53;;;;;;;3.50;2.67;;;;;;;;;;5091247;28;20207;-77
2024/01/16 08:02:20;;;;;;;3.33;2.70;;;;;;;;;;5090556;28;20645;-77
2024/01/16 08:04:46;;;;;;;2.27;2.03;;;;;;;;;;5090908;28;20203;-77
2024/01/16 08:07:13;;;;;;;2.47;2.20;;;;;;;;;;5090737;28;20196;-77
2024/01/16 08:09:41;;;;;;;2.10;1.50;;;;;;;;;;5090859;28;20219;-76
2024/01/16 08:12:08;;;;;;;3.10;1.50;;;;;;;;;;5090943;28;20204;-76
2024/01/16 08:14:35;;;;;;;3.03;1.20;;;;;;;;;;5090364;28;20215;-77
2024/01/16 08:17:02;;;;;;;1.43;1.33;;;;;;;;;;5090860;28;20296;-77
2024/01/16 08:19:29;;;;;;;3.93;1.70;;;;;;;;;;5090947;28;20204;-76
2024/01/16 08:21:56;;;;;;;3.33;1.20;;;;;;;;;;5090747;28;20203;-77
2024/01/16 08:24:24;;;;;;;2.10;1.17;;;;;;;;;;5090474;28;20625;-77
2024/01/16 08:26:57;;;;;;;3.73;1.33;;;;;;;;;;5090327;28;20204;-77
2024/01/16 08:29:25;;;;;;;1.30;1.30;;;;;;;;;;5090596;28;20228;-77
2024/01/16 08:31:55;;;;;;;0.80;0.80;;;;;;;;;;5090832;28;20582;-77
2024/01/16 08:34:21;;;;;;;1.00;1.00;;;;;;;;;;5090451;28;20207;-77
2024/01/16 08:36:48;;;;;;;8.43;1.60;;;;;;;;;;5090811;28;20278;-76
2024/01/16 08:39:16;;;;;;;2.63;1.20;;;;;;;;;;5090416;28;20204;-77
2024/01/16 08:41:45;;;;;;;1.20;1.03;;;;;;;;;;5090531;28;20200;-76
2024/01/16 08:44:16;;;;;;;1.80;1.23;;;;;;;;;;5090465;28;20612;-76
2024/01/16 08:46:43;;;;;;;1.33;1.23;;;;;;;;;;5090333;28;20201;-76
2024/01/16 08:49:11;;;;;;;1.27;1.20;;;;;;;;;;5090662;28;20201;-76
2024/01/16 08:51:38;;;;;;;1.13;1.10;;;;;;;;;;5059580;28;20205;-77
2024/01/16 08:54:06;;;;;;;6.33;1.60;;;;;;;;;;5090702;28;20574;-77
2024/01/16 08:56:32;;;;;;;3.00;1.30;;;;;;;;;;5090311;28;20235;-76
2024/01/16 08:58:59;;;;;;;1.57;1.10;;;;;;;;;;5089610;28;20207;-76
2024/01/16 09:01:28;;;;;;;4.93;1.40;;;;;;;;;;5094155;28;20204;-76
2024/01/16 09:03:54;;;;;;;1.83;1.33;;;;;;;;;;5094053;28;20588;-77
2024/01/16 09:06:21;;;;;;;3.17;1.37;;;;;;;;;;5094285;28;20200;-77
2024/01/16 09:08:48;;;;;;;1.30;1.20;;;;;;;;;;5093710;28;20623;-77
2024/01/16 09:11:15;;;;;;;1.57;1.13;;;;;;;;;;5093846;28;20736;-77
2024/01/16 09:13:41;;;;;;;1.17;0.93;;;;;;;;;;5094045;28;20556;-77
2024/01/16 09:16:08;;;;;;;1.20;1.10;;;;;;;;;;5094169;28;20224;-77
2024/01/16 09:18:36;;;;;;;4.10;1.13;;;;;;;;;;5093155;28;20677;-77
2024/01/16 09:21:06;;;;;;;5.83;1.33;;;;;;;;;;5094281;28;20199;-77
2024/01/16 09:23:34;;;;;;;4.20;1.20;;;;;;;;;;5093843;28;20565;-76
2024/01/16 09:26:00;;;;;;;1.00;1.00;;;;;;;;;;5093932;28;20211;-77
2024/01/16 09:28:28;;;;;;;1.10;1.10;;;;;;;;;;5093352;28;20329;-77
2024/01/16 09:30:56;;;;;;;1.60;1.50;;;;;;;;;;5093592;28;20739;-78
2024/01/16 09:33:23;;;;;;;1.30;1.20;;;;;;;;;;5093207;28;20196;-76
2024/01/16 09:35:51;;;;;;;1.00;1.00;;;;;;;;;;5093715;28;20220;-76
2024/01/16 09:38:18;;;;;;;1.77;1.10;;;;;;;;;;5092950;28;20201;-77
2024/01/16 09:40:46;;;;;;;1.20;1.10;;;;;;;;;;5093558;28;20597;-76
2024/01/16 09:43:15;;;;;;;1.00;1.00;;;;;;;;;;5093503;28;20210;-77
2024/01/16 09:45:42;;;;;;;1.30;1.20;;;;;;;;;;5093350;28;20309;-76
2024/01/16 09:48:09;;;;;;;1.23;1.23;;;;;;;;;;5093309;28;20216;-77
2024/01/16 09:50:36;;;;;;;1.63;1.10;;;;;;;;;;5092753;28;21009;-77
2024/01/16 09:53:04;;;;;;;1.00;1.00;;;;;;;;;;5092922;28;20204;-77
2024/01/16 09:55:31;;;;;;;2.10;1.20;;;;;;;;;;5093313;28;20674;-77
2024/01/16 09:57:58;;;;;;;0.93;0.93;;;;;;;;;;5092502;28;20200;-76
2024/01/16 10:00:25;;;;;;;3.37;1.33;;;;;;;;;;5093369;28;20207;-76
2024/01/16 10:02:58;;;;;;;1.87;1.40;;;;;;;;;;5092800;28;20204;-76
2024/01/16 10:05:25;;;;;;;0.90;0.90;;;;;;;;;;5093451;28;20675;-76
2024/01/16 10:07:55;;;;;;;1.20;1.10;;;;;;;;;;5092662;28;20678;-76
2024/01/16 10:10:28;;;;;;;2.20;0.87;;;;;;;;;;5092158;28;20201;-78
2024/01/16 10:12:56;;;;;;;1.37;1.00;;;;;;;;;;5092670;28;20201;-78
2024/01/16 10:15:23;;;;;;;0.70;0.70;;;;;;;;;;5092693;28;20201;-77
2024/01/16 10:17:50;;;;;;;11.00;2.47;;;;;;;;;;5092434;28;20227;-79
2024/01/16 10:20:18;;;;;;;2.07;0.70;;;;;;;;;;5092637;28;20215;-77
2024/01/16 10:22:53;;;;;;;1.10;1.10;;;;;;;;;;5092237;28;20201;-77
2024/01/16 10:25:21;;;;;;;1.00;1.00;;;;;;;;;;5092228;28;20196;-77
2024/01/16 10:27:49;;;;;;;0.80;0.80;;;;;;;;;;5092417;28;21320;-77
2024/01/16 10:30:22;;;;;;;0.93;0.93;;;;;;;;;;5092241;28;20201;-77
2024/01/16 10:32:49;;;;;;;1.30;1.20;;;;;;;;;;5092484;28;20269;-77
2024/01/16 10:35:16;;;;;;;1.80;0.97;;;;;;;;;;5092457;28;20201;-77
2024/01/16 10:37:44;;;;;;;3.73;1.40;;;;;;;;;;5092512;28;20251;-77
2024/01/16 10:40:11;;;;;;;1.27;1.00;;;;;;;;;;5092256;28;20227;-77
2024/01/16 10:42:38;;;;;;;1.13;1.13;;;;;;;;;;5092278;28;20212;-77
2024/01/16 10:45:08;;;;;;;2.10;0.93;;;;;;;;;;5092021;28;20196;-77
2024/01/16 10:47:37;;;;;;;1.10;1.00;;;;;;;;;;5091650;28;20208;-77
2024/01/16 10:50:09;;;;;;;1.97;0.90;;;;;;;;;;5092431;28;20215;-77
2024/01/16 10:52:36;;;;;;;1.20;1.13;;;;;;;;;;5091968;28;20231;-77
2024/01/16 10:55:05;;;;;;;0.90;0.90;;;;;;;;;;5092229;28;20196;-77
2024/01/16 10:57:33;;;;;;;1.17;1.10;;;;;;;;;;5091224;28;20289;-77
2024/01/16 11:00:05;;;;;;;0.60;0.60;;;;;;;;;;5092236;28;20192;-77
2024/01/16 11:02:37;;;;;;;3.60;1.10;;;;;;;;;;5091687;28;20230;-77
2024/01/16 11:05:05;;;;;;;4.60;1.27;;;;;;;;;;5092156;28;20200;-77
2024/01/16 11:07:34;;;;;;;0.93;0.93;;;;;;;;;;5091568;28;20212;-77
2024/01/16 11:10:03;;;;;;;2.23;1.07;;;;;;;;;;5091882;28;20258;-77
2024/01/16 11:12:30;;;;;;;6.57;1.13;;;;;;;;;;5091526;28;20250;-77
2024/01/16 11:15:01;;;;;;;1.80;0.90;;;;;;;;;;5091959;28;20231;-77
2024/01/16 11:17:29;;;;;;;1.33;1.10;;;;;;;;;;5091988;28;20251;-77
2024/01/16 11:19:58;;;;;;;4.47;1.23;;;;;;;;;;5091334;28;20200;-77
2024/01/16 11:22:25;;;;;;;3.17;1.60;;;;;;;;;;5090714;28;20613;-77
2024/01/16 11:25:08;;;;;;;5.97;3.80;;;;;;;;;;5091250;28;20204;-77
2024/01/16 11:27:36;;;;;;;5.30;3.17;;;;;;;;;;5090980;28;20552;-77
2024/01/16 11:30:02;;;;;;;15.43;9.03;;;;;;;;;;5091293;28;20207;-77
2024/01/16 11:32:36;;;;;;;2.67;2.27;;;;;;;;;;5091294;28;20204;-78
2024/01/16 11:35:06;;;;;;;3.70;2.90;;;;;;;;;;5091341;28;20556;-77
2024/01/16 11:37:33;;;;;;;4.20;3.43;;;;;;;;;;5091205;28;20243;-77
2024/01/16 11:40:22;;;;;;;2.07;1.87;;;;;;;;;;5090784;28;20238;-78
2024/01/16 11:42:49;;;;;;;2.20;2.00;;;;;;;;;;5090887;28;20212;-77
2024/01/16 11:45:51;;;;;;;1.70;1.60;;;;;;;;;;5090724;28;20207;-76
2024/01/16 11:48:19;;;;;;;1.67;1.57;;;;;;;;;;5090776;28;20231;-77
2024/01/16 11:50:47;;;;;;;1.60;1.50;;;;;;;;;;5091210;28;20211;-77
2024/01/16 11:53:33;;;;;;;1.50;1.40;;;;;;;;;;5090683;28;20200;-77
2024/01/16 11:56:26;;;;;;;1.30;1.20;;;;;;;;;;5090931;28;20242;-77
2024/01/16 11:59:02;;;;;;;2.83;2.10;;;;;;;;;;5090867;28;20686;-79
2024/01/16 12:01:30;;;;;;;1.30;1.20;;;;;;;;;;5078573;28;20646;-77
2024/01/16 12:04:04;;;;;;;0.93;0.90;;;;;;;;;;5090983;28;20204;-77
2024/01/16 12:06:33;;;;;;;16.40;1.63;;;;;;;;;;5091227;28;20208;-77
2024/01/16 12:09:15;;;;;;;6.40;1.47;;;;;;;;;;5090515;28;20211;-77
2024/01/16 12:11:43;;;;;;;1.30;1.20;;;;;;;;;;5090747;28;20200;-77
2024/01/16 12:14:10;;;;;;;1.90;1.23;;;;;;;;;;5090234;28;20661;-77
2024/01/16 12:16:37;;;;;;;1.07;1.03;;;;;;;;;;5090752;28;20307;-77
2024/01/16 12:19:08;;;;;;;1.10;1.00;;;;;;;;;;5090372;28;20283;-77
2024/01/16 12:21:36;;;;;;;5.10;1.00;;;;;;;;;;5090500;28;20769;-77
2024/01/16 12:24:04;;;;;;;5.30;1.23;;;;;;;;;;5090517;28;20236;-77
2024/01/16 12:26:32;;;;;;;3.83;1.20;;;;;;;;;;5090399;28;20205;-79
2024/01/16 12:29:00;;;;;;;0.73;0.73;;;;;;;;;;5091155;28;20666;-77
2024/01/16 12:31:28;;;;;;;1.53;0.90;;;;;;;;;;5090651;28;20257;-77
2024/01/16 12:33:56;;;;;;;1.70;1.23;;;;;;;;;;5090910;28;20201;-77
2024/01/16 12:36:23;;;;;;;5.20;1.30;;;;;;;;;;5093749;28;20192;-77
2024/01/16 12:38:56;;;;;;;4.57;1.47;;;;;;;;;;5094418;28;20196;-77
2024/01/16 12:41:24;;;;;;;1.63;0.97;;;;;;;;;;5094422;28;20360;-76
2024/01/16 12:43:54;;;;;;;1.40;1.10;;;;;;;;;;5094291;28;20590;-77
2024/01/16 12:46:21;;;;;;;1.97;1.20;;;;;;;;;;5094676;28;20192;-77
2024/01/16 12:48:48;;;;;;;2.17;1.50;;;;;;;;;;5094236;28;20201;-77
2024/01/16 12:51:22;;;;;;;1.00;1.00;;;;;;;;;;5093816;28;20231;-77
2024/01/16 12:53:50;;;;;;;2.30;1.00;;;;;;;;;;5094125;28;20799;-77
2024/01/16 12:56:21;;;;;;;1.23;1.13;;;;;;;;;;5093914;28;20614;-77
2024/01/16 12:58:48;;;;;;;1.10;1.00;;;;;;;;;;5094079;28;20206;-77
2024/01/16 13:01:25;;;;;;;4.43;1.33;;;;;;;;;;5094172;28;20206;-77
2024/01/16 13:03:54;;;;;;;0.73;0.73;;;;;;;;;;5093765;28;20204;-77
2024/01/16 13:06:22;;;;;;;2.17;1.30;;;;;;;;;;5094017;28;20661;-77
2024/01/16 13:08:48;;;;;;;0.90;0.90;;;;;;;;;;5093827;28;20234;-77
2024/01/16 13:11:19;;;;;;;0.90;0.90;;;;;;;;;;5094284;28;20198;-77
2024/01/16 13:13:48;;;;;;;2.60;0.90;;;;;;;;;;5093074;28;20674;-77
2024/01/16 13:16:17;;;;;;;0.80;0.80;;;;;;;;;;5094312;28;20200;-77
2024/01/16 13:18:44;;;;;;;1.27;1.17;;;;;;;;;;5093266;28;20232;-77
2024/01/16 13:21:13;;;;;;;1.17;1.07;;;;;;;;;;5093837;28;20667;-77
2024/01/16 13:23:39;;;;;;;1.00;1.00;;;;;;;;;;5093514;28;20283;-77
2024/01/16 13:26:07;;;;;;;3.40;1.30;;;;;;;;;;5094046;28;20200;-77
2024/01/16 13:28:33;;;;;;;1.57;1.30;;;;;;;;;;5093645;28;20311;-77
2024/01/16 13:31:03;;;;;;;1.80;1.10;;;;;;;;;;5093834;28;20753;-77
2024/01/16 13:33:31;;;;;;;5.60;2.10;;;;;;;;;;5093297;28;20209;-77
2024/01/16 13:35:58;;;;;;;11.40;3.23;;;;;;;;;;5093346;28;20204;-77
2024/01/16 13:38:28;;;;;;;2.40;1.60;;;;;;;;;;5093230;28;20231;-77
2024/01/16 13:40:54;;;;;;;1.93;1.70;;;;;;;;;;5093726;28;20200;-77
2024/01/16 13:43:22;;;;;;;2.33;2.00;;;;;;;;;;5093476;28;20213;-77
2024/01/16 13:45:49;;;;;;;3.13;2.00;;;;;;;;;;5092761;28;20253;-77
2024/01/16 13:48:18;;;;;;;2.23;1.37;;;;;;;;;;5093539;28;20204;-77
2024/01/16 13:50:45;;;;;;;1.87;1.33;;;;;;;;;;5093682;28;20239;-77
2024/01/16 13:53:14;;;;;;;2.73;1.57;;;;;;;;;;5093102;28;20228;-77
2024/01/16 13:55:42;;;;;;;1.90;1.27;;;;;;;;;;5092707;28;20691;-77
2024/01/16 13:58:08;;;;;;;3.37;1.20;;;;;;;;;;5092985;28;20227;-77
2024/01/16 14:00:35;;;;;;;1.60;1.23;;;;;;;;;;5093440;28;20591;-78
2024/01/16 14:03:03;;;;;;;1.40;1.30;;;;;;;;;;5092854;28;20204;-77
2024/01/16 14:05:31;;;;;;;0.87;0.87;;;;;;;;;;5092599;28;20207;-77
2024/01/16 14:07:58;;;;;;;2.33;0.90;;;;;;;;;;5092998;28;20200;-77
2024/01/16 14:10:25;;;;;;;1.77;1.10;;;;;;;;;;5093074;28;20207;-78
2024/01/16 14:12:54;;;;;;;2.20;1.30;;;;;;;;;;5092821;28;20224;-77
2024/01/16 14:15:23;;;;;;;1.20;1.10;;;;;;;;;;5092965;28;20200;-77
2024/01/16 14:17:51;;;;;;;0.80;0.80;;;;;;;;;;5092662;28;20653;-77
2024/01/16 14:20:22;;;;;;;0.90;0.90;;;;;;;;;;5092372;28;20205;-77
2024/01/16 14:22:53;;;;;;;3.10;1.90;;;;;;;;;;5092539;28;20209;-77
2024/01/16 14:25:20;;;;;;;1.53;1.43;;;;;;;;;;5092457;28;20204;-77
2024/01/16 14:27:55;;;;;;;6.60;2.27;;;;;;;;;;5092345;28;20236;-77
2024/01/16 14:30:22;;;;;;;1.83;1.23;;;;;;;;;;5092844;28;20234;-77
2024/01/16 14:32:49;;;;;;;1.63;1.53;;;;;;;;;;5092662;28;20594;-77
2024/01/16 14:35:17;;;;;;;1.10;1.10;;;;;;;;;;5091960;28;20201;-77
2024/01/16 14:37:44;;;;;;;1.80;1.70;;;;;;;;;;5092042;28;20224;-77
2024/01/16 14:40:20;;;;;;;2.73;1.67;;;;;;;;;;5092586;28;20220;-77
2024/01/16 14:42:47;;;;;;;4.20;2.03;;;;;;;;;;5092500;28;20210;-77